createdAt,value
2023-10-29T00:00:37.664Z,1.20
2023-10-29T00:03:41.356Z,1.15
2023-10-29T00:06:45.971Z,1.27
2023-10-29T00:09:48.737Z,0.95
2023-10-29T00:12:51.531Z,1.20
2023-10-29T00:15:54.282Z,1.30
2023-10-29T00:18:57.047Z,1.33
2023-10-29T00:22:01.205Z,1.00
2023-10-29T00:25:04.036Z,1.02
2023-10-29T00:28:06.828Z,1.10
2023-10-29T00:31:09.463Z,0.95
2023-10-29T00:34:12.379Z,1.08
2023-10-29T00:37:18.403Z,0.90
2023-10-29T00:40:21.233Z,0.88
2023-10-29T00:43:24.553Z,0.82
2023-10-29T00:46:27.930Z,0.98
2023-10-29T00:49:30.886Z,0.85
2023-10-29T00:52:36.067Z,0.82
2023-10-29T00:55:39.038Z,0.90
2023-10-29T00:58:42.841Z,0.93
2023-10-29T01:01:45.602Z,0.85
2023-10-29T01:04:48.749Z,0.93
2023-10-29T01:07:53.241Z,0.75
2023-10-29T01:10:56.340Z,0.80
2023-10-29T01:13:59.057Z,0.75
2023-10-29T01:17:01.970Z,0.98
2023-10-29T01:20:05.681Z,0.60
2023-10-29T01:23:09.865Z,0.70
2023-10-29T01:26:12.799Z,0.68
2023-10-29T01:29:15.672Z,0.88
2023-10-29T01:32:18.495Z,0.60
2023-10-29T01:35:21.534Z,0.57
2023-10-29T01:38:25.662Z,0.63
2023-10-29T01:41:28.618Z,0.80
2023-10-29T01:44:31.983Z,0.68
2023-10-29T01:47:35.054Z,0.60
2023-10-29T01:50:38.102Z,0.65
2023-10-29T01:53:42.341Z,0.95
2023-10-29T01:56:45.228Z,0.55
2023-10-29T01:59:48.038Z,0.60
2023-10-29T02:02:51.537Z,0.90
2023-10-29T02:05:56.018Z,0.77
2023-10-29T02:09:03.227Z,0.88
2023-10-29T02:12:06.708Z,0.65
2023-10-29T02:15:09.871Z,0.60
2023-10-29T02:18:13.453Z,0.55
2023-10-29T02:21:16.388Z,1.02
2023-10-29T02:24:20.702Z,0.80
2023-10-29T02:27:23.814Z,0.80
2023-10-29T02:30:26.555Z,0.60
2023-10-29T02:33:29.385Z,0.93
2023-10-29T02:36:32.149Z,0.55
2023-10-29T02:39:36.276Z,0.60
2023-10-29T02:42:39.033Z,0.75
2023-10-29T02:45:42.319Z,0.63
2023-10-29T02:48:46.346Z,0.60
2023-10-29T02:51:49.057Z,0.60
2023-10-29T02:54:53.286Z,0.63
2023-10-29T02:57:56.113Z,0.82
2023-10-29T03:01:05.510Z,0.68
2023-10-29T03:04:08.548Z,0.60
2023-10-29T03:07:13.463Z,0.75
2023-10-29T03:10:17.485Z,0.65
2023-10-29T03:13:20.172Z,0.80
2023-10-29T03:16:22.921Z,0.50
2023-10-29T03:19:25.700Z,0.60
2023-10-29T03:22:28.493Z,0.65
2023-10-29T03:25:32.647Z,0.50
2023-10-29T03:28:35.556Z,0.60
2023-10-29T03:31:39.421Z,0.55
2023-10-29T03:34:42.233Z,0.75
2023-10-29T03:37:44.963Z,0.55
2023-10-29T03:40:49.133Z,0.43
2023-10-29T03:43:52.085Z,0.47
2023-10-29T03:46:54.835Z,0.63
2023-10-29T03:49:57.673Z,0.60
2023-10-29T03:53:00.420Z,0.50
2023-10-29T03:56:05.227Z,0.70
2023-10-29T03:59:08.147Z,0.68
2023-10-29T04:02:11.099Z,0.50
2023-10-29T04:05:14.011Z,0.50
2023-10-29T04:08:18.022Z,0.50
2023-10-29T04:11:22.168Z,0.60
2023-10-29T04:14:24.918Z,0.70
2023-10-29T04:17:27.842Z,0.50
2023-10-29T04:20:30.678Z,0.40
2023-10-29T04:23:33.581Z,0.40
2023-10-29T04:26:37.798Z,0.35
2023-10-29T04:29:40.654Z,0.68
2023-10-29T04:32:43.576Z,0.40
2023-10-29T04:35:46.564Z,0.35
2023-10-29T04:38:49.500Z,0.40
2023-10-29T04:41:53.914Z,0.40
2023-10-29T04:44:56.665Z,0.73
2023-10-29T04:47:59.590Z,0.40
2023-10-29T04:51:02.648Z,0.40
2023-10-29T04:54:06.049Z,0.40
2023-10-29T04:57:10.314Z,0.50
2023-10-29T05:00:14.344Z,0.45
2023-10-29T05:03:17.259Z,0.47
2023-10-29T05:06:20.872Z,0.40
2023-10-29T05:09:23.684Z,0.50
2023-10-29T05:12:27.782Z,0.40
2023-10-29T05:15:31.172Z,0.38
2023-10-29T05:18:33.943Z,0.52
2023-10-29T05:21:36.678Z,0.40
2023-10-29T05:24:40.155Z,0.60
2023-10-29T05:27:52.927Z,0.40
2023-10-29T05:30:55.816Z,0.73
2023-10-29T05:33:58.623Z,0.68
2023-10-29T05:37:03.840Z,0.47
2023-10-29T05:40:09.136Z,0.30
2023-10-29T05:43:13.314Z,0.47
2023-10-29T05:46:16.810Z,0.50
2023-10-29T05:49:19.519Z,0.40
2023-10-29T05:52:22.637Z,0.50
2023-10-29T05:55:25.554Z,0.50
2023-10-29T05:58:29.700Z,0.40
2023-10-29T06:01:32.509Z,0.57
2023-10-29T06:04:35.447Z,0.50
2023-10-29T06:07:38.412Z,0.60
2023-10-29T06:10:41.119Z,0.40
2023-10-29T06:13:45.868Z,0.55
2023-10-29T06:16:48.626Z,0.63
2023-10-29T06:19:51.428Z,0.40
2023-10-29T06:22:54.178Z,0.40
2023-10-29T06:25:56.963Z,0.30
2023-10-29T06:29:01.110Z,0.40
2023-10-29T06:32:04.178Z,1.05
2023-10-29T06:35:08.122Z,0.70
2023-10-29T06:38:10.963Z,0.60
2023-10-29T06:41:13.721Z,0.52
2023-10-29T06:44:18.029Z,0.60
2023-10-29T06:47:20.812Z,0.50
2023-10-29T06:50:23.576Z,0.38
2023-10-29T06:53:26.344Z,0.50
2023-10-29T06:56:29.165Z,0.63
2023-10-29T06:59:34.542Z,0.57
2023-10-29T07:02:37.937Z,0.80
2023-10-29T07:05:40.881Z,1.10
2023-10-29T07:08:46.312Z,0.70
2023-10-29T07:11:49.128Z,0.93
2023-10-29T07:14:53.637Z,0.90
2023-10-29T07:17:56.609Z,0.88
2023-10-29T07:20:59.747Z,0.80
2023-10-29T07:24:04.705Z,0.70
2023-10-29T07:27:07.629Z,0.82
2023-10-29T07:30:12.815Z,0.70
2023-10-29T07:33:15.715Z,0.52
2023-10-29T07:36:19.057Z,0.57
2023-10-29T07:39:21.882Z,0.50
2023-10-29T07:42:25.941Z,0.68
2023-10-29T07:45:30.046Z,0.65
2023-10-29T07:48:32.826Z,0.90
2023-10-29T07:51:35.671Z,0.70
2023-10-29T07:54:38.522Z,0.70
2023-10-29T07:57:41.764Z,0.70
2023-10-29T08:00:46.112Z,0.70
2023-10-29T08:03:49.723Z,2.42
2023-10-29T08:06:52.522Z,1.60
2023-10-29T08:09:55.444Z,0.60
2023-10-29T08:12:58.219Z,0.90
2023-10-29T08:16:04.334Z,0.63
2023-10-29T08:19:07.541Z,0.80
2023-10-29T08:22:10.244Z,0.70
2023-10-29T08:25:13.038Z,0.90
2023-10-29T08:28:15.760Z,0.60
2023-10-29T08:31:19.781Z,0.82
2023-10-29T08:34:23.043Z,0.82
2023-10-29T08:37:26.444Z,0.80
2023-10-29T08:40:29.241Z,0.60
2023-10-29T08:43:32.501Z,0.80
2023-10-29T08:46:36.761Z,0.93
2023-10-29T08:49:39.522Z,0.55
2023-10-29T08:52:42.250Z,0.52
2023-10-29T08:55:44.983Z,0.70
2023-10-29T08:58:47.733Z,0.80
2023-10-29T09:01:53.420Z,0.40
2023-10-29T09:04:58.342Z,0.88
2023-10-29T09:08:01.081Z,1.00
2023-10-29T09:11:03.949Z,0.90
2023-10-29T09:14:08.572Z,0.80
2023-10-29T09:17:12.698Z,0.50
2023-10-29T09:20:15.589Z,0.75
2023-10-29T09:23:18.548Z,0.55
2023-10-29T09:26:21.316Z,0.50
2023-10-29T09:29:24.989Z,0.90
2023-10-29T09:32:29.094Z,0.77
2023-10-29T09:35:32.073Z,0.82
2023-10-29T09:38:34.708Z,0.80
2023-10-29T09:41:39.791Z,0.82
2023-10-29T09:44:43.744Z,0.88
2023-10-29T09:47:48.181Z,1.02
2023-10-29T09:50:51.932Z,0.50
2023-10-29T09:53:59.415Z,0.90
2023-10-29T09:57:02.524Z,0.70
2023-10-29T10:00:09.047Z,1.10
2023-10-29T10:03:13.375Z,0.77
2023-10-29T10:06:20.182Z,0.65
2023-10-29T10:09:23.637Z,0.90
2023-10-29T10:12:26.629Z,0.70
2023-10-29T10:15:29.534Z,0.73
2023-10-29T10:18:50.298Z,0.70
2023-10-29T10:21:52.948Z,0.80
2023-10-29T10:24:55.543Z,0.93
2023-10-29T10:27:59.540Z,0.80
2023-10-29T10:31:15.756Z,1.10
2023-10-29T10:34:20.632Z,0.90
2023-10-29T10:37:26.149Z,1.10
2023-10-29T10:40:29.078Z,0.90
2023-10-29T10:43:31.759Z,1.10
2023-10-29T10:46:36.289Z,1.17
2023-10-29T10:49:44.135Z,0.93
2023-10-29T10:52:47.085Z,1.33
2023-10-29T10:56:01.634Z,1.27
2023-10-29T10:59:07.672Z,1.20
2023-10-29T11:02:14.204Z,1.20
2023-10-29T11:05:18.977Z,1.10
2023-10-29T11:08:25.048Z,1.02
2023-10-29T11:11:31.124Z,0.80
2023-10-29T11:14:34.115Z,1.23
2023-10-29T11:17:52.499Z,0.77
2023-10-29T11:21:02.992Z,1.05
2023-10-29T11:24:19.386Z,0.70
2023-10-29T11:27:38.890Z,1.23
2023-10-29T11:30:41.711Z,0.70
2023-10-29T11:33:45.823Z,0.93
2023-10-29T11:36:51.435Z,0.80
2023-10-29T11:39:54.182Z,0.90
2023-10-29T11:42:58.287Z,0.68
2023-10-29T11:46:02.476Z,0.90
2023-10-29T11:49:06.505Z,0.82
2023-10-29T11:52:10.711Z,0.82
2023-10-29T11:55:14.306Z,0.70
2023-10-29T11:58:21.055Z,0.95
2023-10-29T12:01:24.161Z,0.95
2023-10-29T12:04:30.868Z,0.90
2023-10-29T12:07:35.714Z,0.80
2023-10-29T12:10:47.348Z,0.90
2023-10-29T12:13:50.114Z,0.57
2023-10-29T12:16:53.066Z,0.47
2023-10-29T12:19:56.313Z,0.40
2023-10-29T12:23:04.109Z,0.70
2023-10-29T12:26:08.152Z,0.40
2023-10-29T12:29:11.579Z,0.38
2023-10-29T12:32:18.190Z,0.40
2023-10-29T12:35:35.942Z,0.40
2023-10-29T12:38:42.637Z,0.30
2023-10-29T12:41:53.042Z,0.38
2023-10-29T12:44:57.008Z,0.60
2023-10-29T12:48:12.686Z,0.30
2023-10-29T12:51:24.400Z,0.50
2023-10-29T12:54:30.371Z,0.40
2023-10-29T12:57:33.129Z,0.50
2023-10-29T13:00:35.946Z,0.55
2023-10-29T13:03:38.694Z,0.30
2023-10-29T13:06:43.600Z,0.50
2023-10-29T13:09:52.509Z,0.70
2023-10-29T13:12:57.085Z,0.50
2023-10-29T13:15:59.784Z,0.60
2023-10-29T13:19:02.900Z,0.60
2023-10-29T13:22:06.695Z,0.60
2023-10-29T13:25:12.346Z,0.30
2023-10-29T13:28:15.425Z,0.25
2023-10-29T13:31:18.399Z,0.50
2023-10-29T13:34:22.033Z,1.70
2023-10-29T13:37:24.754Z,0.52
2023-10-29T13:40:28.876Z,0.30
2023-10-29T13:43:31.892Z,0.28
2023-10-29T13:46:35.100Z,0.38
2023-10-29T13:49:38.452Z,0.45
2023-10-29T13:52:41.917Z,0.43
2023-10-29T13:55:46.118Z,0.30
2023-10-29T13:58:48.928Z,0.30
2023-10-29T14:01:51.664Z,0.30
2023-10-29T14:04:54.377Z,0.45
2023-10-29T14:07:58.736Z,0.40
2023-10-29T14:11:02.913Z,0.30
2023-10-29T14:14:05.761Z,0.88
2023-10-29T14:17:08.573Z,0.30
2023-10-29T14:20:12.059Z,0.40
2023-10-29T14:23:14.877Z,0.63
2023-10-29T14:26:19.660Z,0.40
2023-10-29T14:29:22.395Z,0.32
2023-10-29T14:32:25.490Z,0.47
2023-10-29T14:35:28.155Z,0.40
2023-10-29T14:38:31.348Z,0.40
2023-10-29T14:41:35.471Z,0.57
2023-10-29T14:44:38.278Z,0.50
2023-10-29T14:47:40.999Z,0.40
2023-10-29T14:50:43.929Z,0.35
2023-10-29T14:53:46.688Z,0.50
2023-10-29T14:56:50.735Z,0.35
2023-10-29T14:59:53.542Z,0.40
2023-10-29T15:02:56.856Z,0.57
2023-10-29T15:05:59.770Z,0.65
2023-10-29T15:09:03.513Z,0.70
2023-10-29T15:12:09.205Z,0.70
2023-10-29T15:15:26.329Z,0.40
2023-10-29T15:18:33.194Z,0.45
2023-10-29T15:21:36.065Z,0.40
2023-10-29T15:24:38.832Z,0.38
2023-10-29T15:27:43.811Z,0.40
2023-10-29T15:30:46.764Z,0.47
2023-10-29T15:33:49.547Z,0.47
2023-10-29T15:36:52.274Z,0.70
2023-10-29T15:39:56.828Z,0.82
2023-10-29T15:43:01.226Z,0.90
2023-10-29T15:46:05.303Z,1.00
2023-10-29T15:49:08.155Z,1.10
2023-10-29T15:52:10.927Z,0.60
2023-10-29T15:55:13.663Z,0.80
2023-10-29T15:58:19.440Z,0.60
2023-10-29T16:01:22.308Z,0.50
2023-10-29T16:04:25.920Z,0.70
2023-10-29T16:07:28.856Z,0.80
2023-10-29T16:10:31.588Z,0.70
2023-10-29T16:13:36.337Z,0.65
2023-10-29T16:16:39.012Z,0.50
2023-10-29T16:19:41.919Z,0.52
2023-10-29T16:22:44.629Z,0.70
2023-10-29T16:25:47.415Z,0.80
2023-10-29T16:28:51.491Z,0.77
2023-10-29T16:31:55.375Z,0.90
2023-10-29T16:34:58.784Z,0.90
2023-10-29T16:38:01.547Z,0.80
2023-10-29T16:41:07.475Z,0.60
2023-10-29T16:44:11.519Z,0.55
2023-10-29T16:47:14.232Z,0.50
2023-10-29T16:50:17.199Z,0.60
2023-10-29T16:53:19.951Z,0.40
2023-10-29T16:56:22.931Z,1.95
2023-10-29T16:59:26.951Z,1.63
2023-10-29T17:02:29.994Z,0.98
2023-10-29T17:05:32.832Z,1.00
2023-10-29T17:08:35.584Z,1.10
2023-10-29T17:11:39.163Z,0.90
2023-10-29T17:14:43.181Z,0.80
2023-10-29T17:17:45.912Z,0.65
2023-10-29T17:20:52.515Z,0.90
2023-10-29T17:23:55.289Z,0.43
2023-10-29T17:26:58.334Z,0.85
2023-10-29T17:30:04.950Z,0.70
2023-10-29T17:33:07.773Z,0.70
2023-10-29T17:36:11.551Z,0.70
2023-10-29T17:39:16.140Z,0.60
2023-10-29T17:42:19.050Z,0.50
2023-10-29T17:45:23.173Z,0.80
2023-10-29T17:51:29.053Z,0.77
2023-10-29T17:54:33.003Z,0.57
2023-10-29T17:57:35.940Z,0.80
2023-10-29T18:00:40.066Z,0.93
2023-10-29T18:03:42.944Z,0.82
2023-10-29T18:06:50.269Z,1.05
2023-10-29T18:09:52.949Z,0.82
2023-10-29T18:12:55.656Z,0.90
2023-10-29T18:16:00.905Z,0.60
2023-10-29T18:19:05.495Z,0.50
2023-10-29T18:22:08.146Z,0.73
2023-10-29T18:25:10.973Z,0.43
2023-10-29T18:28:13.703Z,0.60
2023-10-29T18:31:17.770Z,0.63
2023-10-29T18:34:20.482Z,0.63
2023-10-29T18:37:23.189Z,0.60
2023-10-29T18:40:27.904Z,0.70
2023-10-29T18:43:30.664Z,0.60
2023-10-29T18:46:34.765Z,0.63
2023-10-29T18:49:37.614Z,0.60
2023-10-29T18:52:40.316Z,0.50
2023-10-29T18:55:43.191Z,0.82
2023-10-29T18:58:46.014Z,0.90
2023-10-29T19:01:50.232Z,0.85
2023-10-29T19:04:53.295Z,0.40
2023-10-29T19:07:56.009Z,0.85
2023-10-29T19:11:01.814Z,0.60
2023-10-29T19:14:05.039Z,0.70
2023-10-29T19:17:10.171Z,0.60
2023-10-29T19:20:13.979Z,0.75
2023-10-29T19:23:16.679Z,0.50
2023-10-29T19:26:19.437Z,0.50
2023-10-29T19:29:22.241Z,0.30
2023-10-29T19:32:26.277Z,0.73
2023-10-29T19:35:32.830Z,0.60
2023-10-29T19:38:35.514Z,0.52
2023-10-29T19:41:38.208Z,0.80
2023-10-29T19:44:41.462Z,0.65
2023-10-29T19:47:46.097Z,0.57
2023-10-29T19:50:57.606Z,0.98
2023-10-29T19:54:01.421Z,0.40
2023-10-29T19:57:04.763Z,0.30
2023-10-29T20:00:08.743Z,0.40
2023-10-29T20:03:13.725Z,0.75
2023-10-29T20:06:16.904Z,0.50
2023-10-29T20:09:19.861Z,0.45
2023-10-29T20:12:22.600Z,0.60
2023-10-29T20:15:26.403Z,0.25
2023-10-29T20:18:31.687Z,0.32
2023-10-29T20:21:34.438Z,0.32
2023-10-29T20:24:37.520Z,0.30
2023-10-29T20:27:42.398Z,0.30
2023-10-29T20:30:46.946Z,0.20
2023-10-29T20:33:51.847Z,0.30
2023-10-29T20:36:54.649Z,0.50
2023-10-29T20:39:57.396Z,0.52
2023-10-29T20:43:00.295Z,0.40
2023-10-29T20:46:04.639Z,0.93
2023-10-29T20:49:08.723Z,0.57
2023-10-29T20:52:11.622Z,0.60
2023-10-29T20:55:14.483Z,0.50
2023-10-29T20:58:17.287Z,0.60
2023-10-29T21:01:20.055Z,0.55
2023-10-29T21:04:24.308Z,0.60
2023-10-29T21:07:27.005Z,0.82
2023-10-29T21:10:30.398Z,0.40
2023-10-29T21:13:33.370Z,0.70
2023-10-29T21:16:36.248Z,0.63
2023-10-29T21:19:40.405Z,0.60
2023-10-29T21:22:43.169Z,0.90
2023-10-29T21:25:45.975Z,0.73
2023-10-29T21:28:49.049Z,0.98
2023-10-29T21:31:52.001Z,0.70
2023-10-29T21:34:56.029Z,0.90
2023-10-29T21:37:58.853Z,0.90
2023-10-29T21:41:05.667Z,1.23
2023-10-29T21:44:08.526Z,0.82
2023-10-29T21:47:11.323Z,0.73
2023-10-29T21:50:16.768Z,0.85
2023-10-29T21:53:19.605Z,1.20
2023-10-29T21:56:22.310Z,1.13
2023-10-29T21:59:25.092Z,0.75
2023-10-29T22:02:27.993Z,1.10
2023-10-29T22:05:32.089Z,1.00
2023-10-29T22:08:35.401Z,0.90
2023-10-29T22:11:38.277Z,1.30
2023-10-29T22:14:41.066Z,0.88
2023-10-29T22:17:43.991Z,0.93
2023-10-29T22:20:48.326Z,0.98
2023-10-29T22:23:51.075Z,0.88
2023-10-29T22:26:54.146Z,0.95
2023-10-29T22:29:57.438Z,1.00
2023-10-29T22:33:00.330Z,0.98
2023-10-29T22:36:06.259Z,1.00
2023-10-29T22:39:09.148Z,1.23
2023-10-29T22:42:11.918Z,1.67
2023-10-29T22:45:14.694Z,1.17
2023-10-29T22:48:17.488Z,0.98
2023-10-29T22:51:21.778Z,0.93
2023-10-29T22:54:24.640Z,1.25
2023-10-29T22:57:27.394Z,1.23
2023-10-29T23:00:30.254Z,1.27
2023-10-29T23:03:33.262Z,1.27
2023-10-29T23:06:37.359Z,1.13
2023-10-29T23:09:40.270Z,1.40
2023-10-29T23:12:43.288Z,1.20
2023-10-29T23:15:46.196Z,1.48
2023-10-29T23:18:49.359Z,1.20
2023-10-29T23:21:53.705Z,1.48
2023-10-29T23:24:57.974Z,1.40
2023-10-29T23:28:00.724Z,1.35
2023-10-29T23:31:03.522Z,1.25
2023-10-29T23:34:06.896Z,1.00
2023-10-29T23:37:10.992Z,1.45
2023-10-29T23:40:14.959Z,1.13
2023-10-29T23:43:17.715Z,1.05
2023-10-29T23:46:20.922Z,1.40
2023-10-29T23:49:24.138Z,1.20
2023-10-29T23:52:28.470Z,1.13
2023-10-29T23:55:31.156Z,1.40
2023-10-29T23:58:33.827Z,1.10
